Aérodrome :
LOGIN :

S'inscrire | Disclaimer

   EN    FR    IT 

 










Légende :    VFR   VFR Marginal   IFR   IFR Intensif   IFR Très Intensif
Visi : 
Plafond : 
>= 8 km
>= 3000ft
5 à 8 km
1000 à 3000 ft
1500m à 5 km
500 à 1000 ft
800 à 1500m
200 à 500 ft
< 800m
< 200 ft
Symboles :   Orages  Brouillard  Fortes neiges  Fortes précipitations  Vent > 20 kt
SIGMETs :   Divers  Orages  Givrage  Turbulence  Onde Orograph.  Cendres Volcan.






- Altitude de l'aérodrome : 348 ft
- Code IATA : LDV


LFRJ - Landivisiau

DERNIER METAR :
  • 100530Z AUTO 19014KT 9999 OVC022 09/07 Q1022 NOSIG

METARs EXPIRÉS :
  • 100500Z AUTO 20014KT 9999 OVC022 09/06 Q1023
  • 100430Z AUTO 19012KT 9999 OVC023 08/06 Q1024
  • 100400Z AUTO 18012KT 9999 OVC023 08/06 Q1024
  • 100330Z AUTO 19010KT 9999 BKN026 OVC240 08/06 Q1025
  • 100300Z AUTO 20009KT 9999 BKN025 OVC240 07/05 Q1025
  • 100230Z AUTO 20009KT 9999 FEW024 SCT029 OVC250 06/05 Q1026

TAF TAF LFRJ
Valide du 10 à 06h jusqu'au 10 à 15h UTC


100500Z 1006/1015 19013KT 9999 OVC020
BECMG 1008/1010 20020G35KT 5000 RA OVC008
TEMPO 1010/1015 2000 RADZ OVC005



MET'MAP, la Météo Aéronautique d'un coup d'oeil ! - Copyright ORBIFLY Décembre 2007 - Disclaimer

ORBIFLY MET'MAP TEAM :

Programmation & Développement : Alexandra Zaïnal
Sur une idée originale de : Baudouin d'Aumeries
Assistance à la programmation : Marc-Olivier Méhu
Soutien technique & logistique : Manuel Goepfert

Contact : metmap@orbifly.com




SOURCES & CREDITS :

   NOAA